createdAt,value
2019-05-15T00:02:10.859Z,79.60
2019-05-15T00:04:39.772Z,79.60
2019-05-15T00:07:09.108Z,79.70
2019-05-15T00:09:41.738Z,79.90
2019-05-15T00:12:09.213Z,80.60
2019-05-15T00:14:38.901Z,81.40
2019-05-15T00:17:08.303Z,80.80
2019-05-15T00:19:38.883Z,80.80
2019-05-15T00:22:08.649Z,80.90
2019-05-15T00:24:38.229Z,81.00
2019-05-15T00:27:11.855Z,81.10
2019-05-15T00:29:40.928Z,81.40
2019-05-15T00:32:10.044Z,81.30
2019-05-15T00:34:39.114Z,81.20
2019-05-15T00:37:09.080Z,81.20
2019-05-15T00:39:39.073Z,81.40
2019-05-15T00:42:08.399Z,81.80
2019-05-15T00:44:38.701Z,81.80
2019-05-15T00:47:10.517Z,81.80
2019-05-15T00:49:38.697Z,81.80
2019-05-15T00:52:12.069Z,82.30
2019-05-15T00:54:38.932Z,82.40
2019-05-15T00:57:08.524Z,82.50
2019-05-15T00:59:39.039Z,82.40
2019-05-15T01:02:08.719Z,82.50
2019-05-15T01:04:38.911Z,82.30
2019-05-15T01:07:08.421Z,82.30
2019-05-15T01:09:38.480Z,82.50
2019-05-15T01:12:09.091Z,83.10
2019-05-15T01:14:38.691Z,83.30
2019-05-15T01:17:09.095Z,83.50
2019-05-15T01:19:38.459Z,83.60
2019-05-15T01:22:08.748Z,83.80
2019-05-15T01:25:08.845Z,83.90
2019-05-15T01:27:38.875Z,84.00
2019-05-15T01:30:09.190Z,84.20
2019-05-15T01:32:39.448Z,84.30
2019-05-15T01:35:09.633Z,84.20
2019-05-15T01:37:39.412Z,84.50
2019-05-15T01:40:09.582Z,84.70
2019-05-15T01:42:39.036Z,84.90
2019-05-15T01:45:09.208Z,85.10
2019-05-15T01:47:39.112Z,85.00
2019-05-15T01:50:09.502Z,85.30
2019-05-15T01:52:39.290Z,85.50
2019-05-15T01:55:09.347Z,85.50
2019-05-15T01:57:38.860Z,86.00
2019-05-15T02:00:09.884Z,86.70
2019-05-15T02:02:39.653Z,87.70
2019-05-15T02:05:09.498Z,88.00
2019-05-15T02:07:39.327Z,88.10
2019-05-15T02:10:09.422Z,88.40
2019-05-15T02:12:39.184Z,89.00
2019-05-15T02:15:09.331Z,88.60
2019-05-15T02:17:39.554Z,88.30
2019-05-15T02:20:09.757Z,88.60
2019-05-15T02:22:42.476Z,88.60
2019-05-15T02:25:10.571Z,88.40
2019-05-15T02:27:39.945Z,88.20
2019-05-15T02:30:22.570Z,88.30
2019-05-15T02:32:40.873Z,88.70
2019-05-15T02:35:10.593Z,88.70
2019-05-15T02:37:41.422Z,88.80
2019-05-15T02:40:12.577Z,88.60
2019-05-15T02:42:41.903Z,88.80
2019-05-15T02:45:11.189Z,89.00
2019-05-15T02:47:40.540Z,89.10
2019-05-15T02:50:11.197Z,89.30
2019-05-15T02:52:45.210Z,89.70
2019-05-15T02:55:12.202Z,90.00
2019-05-15T02:57:41.570Z,90.10
2019-05-15T03:00:22.333Z,90.30
2019-05-15T03:02:42.709Z,90.50
2019-05-15T03:05:12.088Z,90.60
2019-05-15T03:07:41.507Z,90.60
2019-05-15T03:10:11.186Z,90.80
2019-05-15T03:12:41.313Z,91.20
2019-05-15T03:15:11.611Z,91.40
2019-05-15T03:17:41.102Z,91.40
2019-05-15T03:20:11.360Z,91.40
2019-05-15T03:22:40.937Z,91.40
2019-05-15T03:25:11.322Z,91.70
2019-05-15T03:27:40.715Z,91.60
2019-05-15T03:30:14.844Z,91.50
2019-05-15T03:32:52.630Z,91.80
2019-05-15T03:35:15.158Z,92.00
2019-05-15T03:37:43.458Z,92.10
2019-05-15T03:40:12.803Z,92.00
2019-05-15T03:42:42.438Z,92.20
2019-05-15T03:45:12.027Z,92.30
2019-05-15T03:47:42.563Z,92.50
2019-05-15T03:50:11.938Z,92.60
2019-05-15T03:52:41.529Z,92.60
2019-05-15T03:55:11.336Z,92.50
2019-05-15T03:57:41.266Z,92.60
2019-05-15T04:00:10.689Z,92.60
2019-05-15T04:02:40.096Z,92.60
2019-05-15T04:05:11.979Z,92.70
2019-05-15T04:07:40.605Z,92.80
2019-05-15T04:10:10.520Z,92.90
2019-05-15T04:12:42.415Z,92.90
2019-05-15T04:15:12.249Z,92.70
2019-05-15T04:17:41.835Z,92.80
2019-05-15T04:20:11.260Z,92.70
2019-05-15T04:22:40.745Z,92.90
2019-05-15T04:25:10.577Z,92.80
2019-05-15T04:27:42.813Z,93.00
2019-05-15T04:30:12.667Z,92.90
2019-05-15T04:32:42.428Z,93.00
2019-05-15T04:35:12.069Z,93.10
2019-05-15T04:37:41.715Z,93.20
2019-05-15T04:40:11.096Z,93.20
2019-05-15T04:42:40.452Z,93.20
2019-05-15T04:45:10.865Z,93.20
2019-05-15T04:47:40.551Z,93.20
2019-05-15T04:50:10.079Z,93.20
2019-05-15T04:52:43.058Z,93.30
2019-05-15T04:55:10.877Z,93.40
2019-05-15T04:57:40.972Z,93.60
2019-05-15T05:00:10.725Z,93.60
2019-05-15T05:02:40.734Z,93.80
2019-05-15T05:05:10.831Z,93.80
2019-05-15T05:07:40.747Z,93.80
2019-05-15T05:10:10.374Z,93.80
2019-05-15T05:12:42.085Z,94.00
2019-05-15T05:15:10.910Z,94.10
2019-05-15T05:17:40.185Z,94.00
2019-05-15T05:20:09.461Z,94.20
2019-05-15T05:22:39.487Z,94.20
2019-05-15T05:25:09.533Z,94.00
2019-05-15T05:27:38.786Z,94.00
2019-05-15T05:30:09.332Z,94.00
2019-05-15T05:32:39.721Z,94.00
2019-05-15T05:35:12.041Z,93.90
2019-05-15T05:37:41.321Z,93.90
2019-05-15T05:40:11.591Z,94.00
2019-05-15T05:42:40.926Z,94.00
2019-05-15T05:45:10.542Z,93.80
2019-05-15T05:47:40.122Z,93.80
2019-05-15T05:50:10.277Z,93.80
2019-05-15T05:52:39.757Z,93.70
2019-05-15T05:55:09.546Z,93.60
2019-05-15T05:57:38.867Z,93.40
2019-05-15T06:00:09.635Z,93.60
2019-05-15T06:02:48.803Z,93.60
2019-05-15T06:05:18.838Z,93.50
2019-05-15T06:07:48.751Z,93.90
2019-05-15T06:10:20.260Z,93.60
2019-05-15T06:12:51.663Z,93.60
2019-05-15T06:15:21.006Z,93.50
2019-05-15T06:17:54.571Z,93.50
2019-05-15T06:20:28.666Z,93.40
2019-05-15T06:22:58.257Z,93.20
2019-05-15T06:25:30.566Z,93.20
2019-05-15T06:27:58.587Z,93.10
2019-05-15T06:30:30.807Z,93.20
2019-05-15T06:33:08.299Z,93.00
2019-05-15T06:35:31.458Z,93.20
2019-05-15T06:38:00.858Z,92.60
2019-05-15T06:40:30.204Z,92.20
2019-05-15T06:42:59.593Z,91.80
2019-05-15T06:45:28.863Z,92.00
2019-05-15T06:48:01.376Z,91.00
2019-05-15T06:50:38.309Z,91.20
2019-05-15T06:53:10.688Z,90.90
2019-05-15T06:55:39.157Z,88.90
2019-05-15T06:58:09.271Z,87.40
2019-05-15T07:00:39.221Z,86.80
2019-05-15T07:03:20.191Z,86.00
2019-05-15T07:05:39.692Z,85.80
2019-05-15T07:08:09.222Z,86.40
2019-05-15T07:10:38.605Z,86.30
2019-05-15T07:13:08.882Z,84.80
2019-05-15T07:15:38.551Z,83.40
2019-05-15T07:18:08.702Z,83.40
2019-05-15T07:20:39.111Z,82.50
2019-05-15T07:23:08.955Z,82.80
2019-05-15T07:25:39.035Z,82.00
2019-05-15T07:28:08.886Z,82.30
2019-05-15T07:30:41.140Z,82.30
2019-05-15T07:33:09.409Z,80.20
2019-05-15T07:35:38.760Z,78.60
2019-05-15T07:38:08.162Z,78.10
2019-05-15T07:40:38.752Z,77.20
2019-05-15T07:43:09.347Z,77.10
2019-05-15T07:45:43.854Z,76.90
2019-05-15T07:48:10.110Z,76.30
2019-05-15T07:50:39.735Z,76.20
2019-05-15T07:53:09.157Z,76.00
2019-05-15T07:55:39.368Z,76.20
2019-05-15T07:58:08.936Z,75.50
2019-05-15T08:00:39.426Z,75.60
2019-05-15T08:03:10.352Z,76.70
2019-05-15T08:05:55.139Z,76.70
2019-05-15T08:08:10.912Z,75.80
2019-05-15T08:10:40.288Z,76.20
2019-05-15T08:13:09.699Z,76.10
2019-05-15T08:15:38.980Z,76.10
2019-05-15T08:18:12.962Z,75.80
2019-05-15T08:20:41.977Z,75.30
2019-05-15T08:23:11.307Z,75.20
2019-05-15T08:25:40.645Z,75.10
2019-05-15T08:28:09.976Z,75.50
2019-05-15T08:30:39.363Z,75.40
2019-05-15T08:33:08.793Z,75.50
2019-05-15T08:35:38.835Z,74.70
2019-05-15T08:38:08.822Z,73.90
2019-05-15T08:40:41.104Z,72.50
2019-05-15T08:43:11.501Z,71.10
2019-05-15T08:45:40.741Z,70.10
2019-05-15T08:48:10.052Z,70.20
2019-05-15T08:50:39.395Z,70.80
2019-05-15T08:53:08.859Z,70.30
2019-05-15T08:55:39.169Z,67.70
2019-05-15T08:58:13.727Z,67.90
2019-05-15T09:00:42.042Z,67.90
2019-05-15T09:03:10.815Z,67.40
2019-05-15T09:05:43.532Z,67.80
2019-05-15T09:08:12.957Z,67.10
2019-05-15T09:10:42.323Z,67.00
2019-05-15T09:13:11.604Z,67.60
2019-05-15T09:15:40.918Z,67.20
2019-05-15T09:18:15.923Z,67.60
2019-05-15T09:20:41.208Z,67.40
2019-05-15T09:23:10.517Z,66.90
2019-05-15T09:25:39.878Z,67.70
2019-05-15T09:28:13.477Z,67.90
2019-05-15T09:30:43.159Z,67.30
2019-05-15T09:33:12.569Z,67.50
2019-05-15T09:35:42.285Z,68.20
2019-05-15T09:38:11.669Z,67.50
2019-05-15T09:40:46.201Z,67.20
2019-05-15T09:43:12.568Z,67.60
2019-05-15T09:45:43.529Z,68.10
2019-05-15T09:48:14.761Z,67.60
2019-05-15T09:50:43.873Z,67.60
2019-05-15T09:53:13.757Z,67.30
2019-05-15T09:55:43.172Z,67.10
2019-05-15T09:58:12.478Z,67.10
2019-05-15T10:00:41.808Z,67.50
2019-05-15T10:03:11.193Z,67.80
2019-05-15T10:05:40.926Z,66.90
2019-05-15T10:08:10.285Z,67.70
2019-05-15T10:10:39.595Z,67.40
2019-05-15T10:13:09.236Z,67.40
2019-05-15T10:15:39.144Z,67.60
2019-05-15T10:18:09.996Z,68.20
2019-05-15T10:20:39.437Z,68.60
2019-05-15T10:23:08.986Z,68.50
2019-05-15T10:25:39.098Z,67.80
2019-05-15T10:28:10.004Z,68.20
2019-05-15T10:30:39.620Z,68.40
2019-05-15T10:33:09.006Z,68.30
2019-05-15T10:35:39.382Z,68.10
2019-05-15T10:38:09.078Z,68.20
2019-05-15T10:40:41.090Z,68.60
2019-05-15T10:43:09.453Z,68.30
2019-05-15T10:45:42.246Z,68.20
2019-05-15T10:48:10.166Z,68.30
2019-05-15T10:50:39.505Z,68.60
2019-05-15T10:53:11.212Z,67.90
2019-05-15T10:55:40.000Z,67.50
2019-05-15T10:58:14.031Z,67.40
2019-05-15T11:00:40.452Z,67.90
2019-05-15T11:03:09.849Z,68.10
2019-05-15T11:05:45.382Z,68.40
2019-05-15T11:08:10.241Z,68.60
2019-05-15T11:10:41.877Z,68.60
2019-05-15T11:13:10.578Z,68.80
2019-05-15T11:15:42.547Z,68.70
2019-05-15T11:18:10.938Z,68.90
2019-05-15T11:20:41.273Z,69.00
2019-05-15T11:23:19.189Z,69.10
2019-05-15T11:25:48.703Z,69.30
2019-05-15T11:28:18.060Z,69.60
2019-05-15T11:30:49.063Z,70.00
2019-05-15T11:33:19.406Z,69.20
2019-05-15T11:36:01.189Z,69.30
2019-05-15T11:38:19.900Z,69.40
2019-05-15T11:40:49.612Z,68.70
2019-05-15T11:43:19.925Z,68.70
2019-05-15T11:45:49.383Z,68.60
2019-05-15T11:48:20.652Z,69.10
2019-05-15T11:50:49.782Z,69.50
2019-05-15T11:53:19.473Z,69.70
2019-05-15T11:55:48.943Z,69.70
2019-05-15T11:58:19.137Z,69.80
2019-05-15T12:00:49.346Z,69.50
2019-05-15T12:03:19.370Z,69.10
2019-05-15T12:05:48.780Z,68.70
2019-05-15T12:08:18.714Z,68.60
2019-05-15T12:10:49.040Z,68.80
2019-05-15T12:15:49.426Z,68.80
2019-05-15T12:18:19.227Z,67.90
2019-05-15T12:20:48.880Z,67.70
2019-05-15T12:23:18.609Z,67.20
2019-05-15T12:25:48.794Z,67.60
2019-05-15T12:28:18.389Z,67.40
2019-05-15T12:30:49.297Z,67.00
2019-05-15T12:33:18.703Z,66.20
2019-05-15T12:35:50.701Z,66.10
2019-05-15T12:38:19.106Z,66.60
2019-05-15T13:00:57.885Z,68.10
2019-05-15T13:03:28.955Z,68.80
2019-05-15T13:05:58.522Z,69.70
2019-05-15T13:08:29.124Z,68.80
2019-05-15T13:10:58.607Z,69.00
2019-05-15T13:13:28.483Z,69.30
2019-05-15T13:15:58.987Z,70.30
2019-05-15T13:18:28.750Z,70.90
2019-05-15T13:20:59.532Z,71.50
2019-05-15T13:23:29.140Z,73.10
2019-05-15T13:25:59.411Z,73.40
2019-05-15T13:28:29.195Z,73.70
2019-05-15T13:30:59.685Z,74.00
2019-05-15T13:33:29.217Z,75.80
2019-05-15T13:35:58.775Z,76.10
2019-05-15T13:38:28.833Z,77.20
2019-05-15T13:40:58.957Z,77.40
2019-05-15T13:43:29.063Z,77.70
2019-05-15T13:45:58.949Z,76.20
2019-05-15T13:48:29.347Z,76.70
2019-05-15T13:50:59.349Z,76.50
2019-05-15T13:53:28.774Z,76.40
2019-05-15T13:55:58.087Z,77.40
2019-05-15T13:58:28.266Z,77.50
2019-05-15T14:00:58.752Z,78.20
2019-05-15T14:03:28.616Z,78.50
2019-05-15T14:05:58.492Z,77.70
2019-05-15T14:08:28.726Z,78.40
2019-05-15T14:10:58.459Z,78.60
2019-05-15T14:13:28.626Z,78.70
2019-05-15T14:15:58.486Z,78.30
2019-05-15T14:18:28.583Z,77.40
2019-05-15T14:20:58.535Z,77.20
2019-05-15T14:23:29.522Z,77.20
2019-05-15T14:26:12.993Z,77.40
2019-05-15T14:28:30.021Z,76.70
2019-05-15T14:30:59.389Z,76.40
2019-05-15T14:33:29.336Z,76.40
2019-05-15T14:35:58.720Z,76.10
2019-05-15T14:38:29.124Z,75.70
2019-05-15T14:40:59.194Z,75.70
2019-05-15T14:43:29.447Z,75.70
2019-05-15T14:45:59.132Z,75.70
2019-05-15T14:48:28.502Z,75.80
2019-05-15T14:50:58.407Z,75.50
2019-05-15T14:53:29.448Z,75.50
2019-05-15T14:56:00.420Z,76.50
2019-05-15T14:58:29.914Z,75.60
2019-05-15T15:01:03.594Z,75.60
2019-05-15T15:03:30.287Z,76.00
2019-05-15T15:05:59.831Z,76.00
2019-05-15T15:08:32.222Z,76.10
2019-05-15T15:11:00.148Z,76.10
2019-05-15T15:13:29.738Z,76.10
2019-05-15T15:15:59.253Z,76.20
2019-05-15T15:18:28.556Z,76.20
2019-05-15T15:20:59.136Z,76.30
2019-05-15T15:23:28.592Z,77.00
2019-05-15T15:25:58.401Z,77.00
2019-05-15T15:28:27.963Z,76.90
2019-05-15T15:30:58.092Z,76.40
2019-05-15T15:33:28.801Z,76.30
2019-05-15T15:35:58.425Z,76.50
2019-05-15T15:38:40.626Z,76.70
2019-05-15T15:41:01.099Z,76.80
2019-05-15T15:43:29.831Z,76.80
2019-05-15T15:45:59.080Z,76.30
2019-05-15T15:48:28.836Z,77.20
2019-05-15T15:50:58.799Z,77.00
2019-05-15T15:53:28.722Z,76.40
2019-05-15T15:55:58.235Z,76.50
2019-05-15T15:58:28.917Z,76.00
2019-05-15T16:00:58.505Z,75.80
2019-05-15T16:03:28.634Z,76.00
2019-05-15T16:05:58.260Z,76.40
2019-05-15T16:08:28.583Z,76.20
2019-05-15T16:10:58.982Z,75.10
2019-05-15T16:13:29.190Z,75.30
2019-05-15T16:15:58.781Z,75.10
2019-05-15T16:18:28.957Z,75.80
2019-05-15T16:20:58.687Z,76.00
2019-05-15T16:23:28.436Z,76.00
2019-05-15T16:26:00.905Z,76.20
2019-05-15T16:28:29.271Z,76.20
2019-05-15T16:30:58.764Z,76.80
2019-05-15T16:33:28.456Z,77.10
2019-05-15T16:35:58.207Z,77.20
2019-05-15T16:38:28.458Z,77.70
2019-05-15T16:40:58.418Z,77.80
2019-05-15T16:43:31.097Z,77.80
2019-05-15T16:46:00.472Z,77.80
2019-05-15T16:48:29.780Z,77.80
2019-05-15T16:50:59.534Z,78.30
2019-05-15T16:53:29.285Z,78.30
2019-05-15T16:55:58.857Z,78.50
2019-05-15T16:58:29.584Z,78.90
2019-05-15T17:00:59.206Z,79.30
2019-05-15T17:03:29.023Z,79.50
2019-05-15T17:05:58.942Z,79.70
2019-05-15T17:08:30.407Z,80.20
2019-05-15T17:10:59.429Z,80.90
2019-05-15T17:13:28.989Z,81.30
2019-05-15T17:15:58.565Z,81.70
2019-05-15T17:18:27.916Z,83.20
2019-05-15T17:20:59.094Z,84.10
2019-05-15T17:23:28.292Z,84.70
2019-05-15T17:25:58.227Z,85.60
2019-05-15T17:28:29.061Z,85.90
2019-05-15T17:30:58.661Z,86.40
2019-05-15T17:33:28.868Z,86.90
2019-05-15T17:35:58.426Z,86.90
2019-05-15T17:38:28.697Z,87.00
2019-05-15T17:40:59.125Z,87.30
2019-05-15T17:43:29.138Z,88.80
2019-05-15T17:45:58.495Z,90.20
2019-05-15T17:48:29.109Z,90.60
2019-05-15T17:50:59.381Z,90.80
2019-05-15T17:53:28.993Z,91.40
2019-05-15T17:55:58.882Z,92.10
2019-05-15T17:58:28.854Z,92.50
2019-05-15T18:01:01.121Z,92.90
2019-05-15T18:03:30.399Z,93.10
2019-05-15T18:05:59.672Z,93.30
2019-05-15T18:08:28.985Z,93.10
2019-05-15T18:10:58.821Z,93.00
2019-05-15T18:13:28.707Z,93.00
2019-05-15T18:16:02.922Z,92.90
2019-05-15T18:18:29.217Z,92.80
2019-05-15T18:20:58.614Z,92.70
2019-05-15T18:23:27.954Z,93.00
2019-05-15T18:25:58.375Z,93.20
2019-05-15T18:28:27.873Z,93.20
2019-05-15T18:30:58.787Z,93.70
2019-05-15T18:33:28.571Z,93.60
2019-05-15T18:35:58.228Z,93.70
2019-05-15T18:38:28.122Z,93.70
2019-05-15T18:40:58.403Z,93.60
2019-05-15T18:43:28.413Z,93.60
2019-05-15T18:45:58.500Z,93.80
2019-05-15T18:48:28.822Z,93.70
2019-05-15T18:50:58.835Z,93.50
2019-05-15T18:53:28.422Z,93.50
2019-05-15T18:55:58.367Z,93.80
2019-05-15T18:58:28.050Z,93.60
2019-05-15T19:00:58.411Z,93.70
2019-05-15T19:03:28.048Z,93.50
2019-05-15T19:05:58.408Z,93.50
2019-05-15T19:08:28.359Z,93.50
2019-05-15T19:11:00.543Z,93.50
2019-05-15T19:13:30.201Z,93.50
2019-05-15T19:16:00.964Z,93.60
2019-05-15T19:18:30.389Z,93.50
2019-05-15T19:21:01.800Z,93.60
2019-05-15T19:23:33.685Z,93.70
2019-05-15T19:26:03.417Z,93.90
2019-05-15T19:28:32.900Z,93.90
2019-05-15T19:31:02.238Z,93.90
2019-05-15T19:33:36.529Z,93.90
2019-05-15T19:36:02.857Z,93.90
2019-05-15T19:38:32.272Z,94.00
2019-05-15T19:41:06.354Z,94.10
2019-05-15T19:43:34.267Z,94.30
2019-05-15T19:46:10.390Z,94.30
2019-05-15T19:52:21.288Z,94.50
2019-05-15T19:54:50.956Z,94.30
2019-05-15T19:57:20.629Z,94.30
2019-05-15T19:59:49.871Z,94.00
2019-05-15T20:02:19.293Z,93.60
2019-05-15T20:04:49.131Z,93.60
2019-05-15T20:07:18.673Z,93.60
2019-05-15T20:09:48.014Z,93.50
2019-05-15T20:12:18.580Z,93.40
2019-05-15T20:14:48.938Z,93.60
2019-05-15T20:17:18.383Z,93.10
2019-05-15T20:19:48.828Z,92.90
2019-05-15T20:22:18.850Z,92.90
2019-05-15T20:24:48.604Z,92.90
2019-05-15T20:27:20.867Z,92.60
2019-05-15T20:29:50.225Z,92.60
2019-05-15T20:32:19.403Z,92.70
2019-05-15T20:34:48.665Z,92.50
2019-05-15T20:37:18.273Z,92.60
2019-05-15T20:39:49.247Z,92.50
2019-05-15T20:42:18.642Z,92.40
2019-05-15T20:44:48.737Z,92.60
2019-05-15T20:47:18.794Z,92.40
2019-05-15T20:49:48.668Z,92.40
2019-05-15T20:52:21.517Z,92.50
2019-05-15T20:54:49.309Z,92.30
2019-05-15T20:57:18.598Z,92.30
2019-05-15T20:59:49.829Z,92.50
2019-05-15T21:02:19.838Z,92.40
2019-05-15T21:04:49.693Z,92.70
2019-05-15T21:07:33.342Z,92.30
2019-05-15T21:09:50.804Z,92.40
2019-05-15T21:12:20.057Z,92.30
2019-05-15T21:14:49.552Z,92.50
2019-05-15T21:17:19.857Z,92.40
2019-05-15T21:19:50.310Z,92.40
2019-05-15T21:22:19.789Z,92.40
2019-05-15T21:24:48.949Z,92.30
2019-05-15T21:27:23.404Z,92.10
2019-05-15T21:29:49.119Z,91.90
2019-05-15T21:32:19.562Z,91.80
2019-05-15T21:34:49.525Z,92.00
2019-05-15T21:37:18.795Z,91.80
2019-05-15T21:39:48.539Z,91.80
2019-05-15T21:42:18.432Z,91.80
2019-05-15T21:44:48.832Z,91.80
2019-05-15T21:47:18.858Z,91.60
2019-05-15T21:49:48.297Z,91.70
2019-05-15T21:52:20.609Z,91.70
2019-05-15T21:54:50.478Z,91.80
2019-05-15T21:57:32.915Z,91.70
2019-05-15T21:59:50.585Z,91.80
2019-05-15T22:02:20.653Z,92.20
2019-05-15T22:04:55.670Z,91.90
2019-05-15T22:07:21.309Z,91.70
2019-05-15T22:09:50.456Z,91.80
2019-05-15T22:12:22.778Z,91.70
2019-05-15T22:14:51.844Z,91.60
2019-05-15T22:17:21.141Z,91.60
2019-05-15T22:19:51.689Z,91.70
2019-05-15T22:22:20.755Z,91.70
2019-05-15T22:24:49.863Z,91.70
2019-05-15T22:27:21.091Z,91.90
2019-05-15T22:29:50.278Z,92.00
2019-05-15T22:32:19.734Z,91.90
2019-05-15T22:34:59.193Z,91.80
2019-05-15T22:37:21.602Z,91.80
2019-05-15T22:39:51.002Z,91.80
2019-05-15T22:42:20.069Z,92.00
2019-05-15T22:44:49.130Z,92.20
2019-05-15T22:47:19.893Z,92.40
2019-05-15T22:49:50.660Z,92.50
2019-05-15T22:52:20.106Z,92.70
2019-05-15T22:54:49.148Z,93.00
2019-05-15T22:57:18.229Z,93.30
2019-05-15T22:59:48.732Z,93.80
2019-05-15T23:02:18.142Z,94.10
2019-05-15T23:04:47.335Z,95.20
2019-05-15T23:07:18.563Z,95.50
2019-05-15T23:09:48.978Z,96.00
2019-05-15T23:12:18.351Z,96.50
2019-05-15T23:14:48.501Z,96.90
2019-05-15T23:17:17.938Z,97.30
2019-05-15T23:19:50.205Z,97.50
2019-05-15T23:22:19.769Z,97.80
2019-05-15T23:24:49.313Z,97.90
2019-05-15T23:27:18.410Z,97.90
2019-05-15T23:29:49.083Z,98.30
2019-05-15T23:32:18.599Z,98.40
2019-05-15T23:34:49.109Z,98.80
2019-05-15T23:37:18.449Z,99.20
2019-05-15T23:39:48.697Z,99.50
2019-05-15T23:42:18.520Z,99.70
2019-05-15T23:44:48.695Z,99.90
2019-05-15T23:47:18.072Z,99.90
2019-05-15T23:49:48.550Z,99.90
2019-05-15T23:52:17.941Z,99.90
2019-05-15T23:54:47.015Z,99.90
2019-05-15T23:57:17.970Z,99.90
2019-05-15T23:59:47.726Z,99.90
